sensor_id;sensor_type;location;lat;lon;timestamp;pressure;altitude;pressure_sealevel;temperature;humidity
62634;BME280;48704;50.534;6.442;2023-09-12T00:01:24;95371.13;;;18.20;100.00
62634;BME280;48704;50.534;6.442;2023-09-12T00:03:49;95360.31;;;18.24;100.00
62634;BME280;48704;50.534;6.442;2023-09-12T00:06:14;95362.06;;;18.27;100.00
62634;BME280;48704;50.534;6.442;2023-09-12T00:08:40;95358.94;;;18.30;100.00
62634;BME280;48704;50.534;6.442;2023-09-12T00:11:07;95359.09;;;18.38;100.00
62634;BME280;48704;50.534;6.442;2023-09-12T00:13:37;95356.03;;;18.36;100.00
62634;BME280;48704;50.534;6.442;2023-09-12T00:16:02;95361.69;;;17.98;100.00
62634;BME280;48704;50.534;6.442;2023-09-12T00:18:28;95357.69;;;17.69;100.00
62634;BME280;48704;50.534;6.442;2023-09-12T00:20:53;95352.69;;;17.81;100.00
62634;BME280;48704;50.534;6.442;2023-09-12T00:23:21;95355.34;;;17.74;100.00
62634;BME280;48704;50.534;6.442;2023-09-12T00:25:49;95359.56;;;18.04;100.00
62634;BME280;48704;50.534;6.442;2023-09-12T00:28:14;95353.28;;;18.30;100.00
62634;BME280;48704;50.534;6.442;2023-09-12T00:30:39;95347.94;;;18.27;100.00
62634;BME280;48704;50.534;6.442;2023-09-12T00:33:05;95343.88;;;18.09;100.00
62634;BME280;48704;50.534;6.442;2023-09-12T00:35:30;95343.16;;;18.22;100.00
62634;BME280;48704;50.534;6.442;2023-09-12T00:37:56;95347.06;;;18.19;100.00
62634;BME280;48704;50.534;6.442;2023-09-12T00:40:21;95344.91;;;18.25;100.00
62634;BME280;48704;50.534;6.442;2023-09-12T00:42:47;95345.53;;;18.18;100.00
62634;BME280;48704;50.534;6.442;2023-09-12T00:45:12;95346.59;;;17.96;100.00
62634;BME280;48704;50.534;6.442;2023-09-12T00:47:37;95346.59;;;17.77;100.00
62634;BME280;48704;50.534;6.442;2023-09-12T00:50:05;95345.66;;;17.69;100.00
62634;BME280;48704;50.534;6.442;2023-09-12T00:52:31;95341.84;;;17.85;100.00
62634;BME280;48704;50.534;6.442;2023-09-12T00:54:58;95347.50;;;17.85;100.00
62634;BME280;48704;50.534;6.442;2023-09-12T00:57:24;95338.22;;;17.90;100.00
62634;BME280;48704;50.534;6.442;2023-09-12T00:59:51;95332.28;;;17.51;100.00
62634;BME280;48704;50.534;6.442;2023-09-12T01:02:18;95320.22;;;17.93;100.00
62634;BME280;48704;50.534;6.442;2023-09-12T01:04:44;95315.19;;;17.86;100.00
62634;BME280;48704;50.534;6.442;2023-09-12T01:07:09;95322.66;;;17.65;100.00
62634;BME280;48704;50.534;6.442;2023-09-12T01:09:35;95333.63;;;17.87;100.00
62634;BME280;48704;50.534;6.442;2023-09-12T01:12:00;95326.94;;;17.72;100.00
62634;BME280;48704;50.534;6.442;2023-09-12T01:14:29;95309.28;;;17.47;100.00
62634;BME280;48704;50.534;6.442;2023-09-12T01:16:56;95308.03;;;18.04;100.00
62634;BME280;48704;50.534;6.442;2023-09-12T01:19:22;95314.00;;;17.82;100.00
62634;BME280;48704;50.534;6.442;2023-09-12T01:25:29;95317.28;;;17.61;100.00
62634;BME280;48704;50.534;6.442;2023-09-12T01:27:41;95313.22;;;17.38;100.00
62634;BME280;48704;50.534;6.442;2023-09-12T01:30:08;95306.44;;;17.71;100.00
62634;BME280;48704;50.534;6.442;2023-09-12T01:32:35;95315.06;;;17.11;100.00
62634;BME280;48704;50.534;6.442;2023-09-12T01:35:00;95312.47;;;17.37;100.00
62634;BME280;48704;50.534;6.442;2023-09-12T01:37:28;95319.41;;;17.55;100.00
62634;BME280;48704;50.534;6.442;2023-09-12T01:39:55;95311.03;;;17.50;100.00
62634;BME280;48704;50.534;6.442;2023-09-12T01:42:21;95303.03;;;17.54;100.00
62634;BME280;48704;50.534;6.442;2023-09-12T01:44:49;95295.34;;;17.54;100.00
62634;BME280;48704;50.534;6.442;2023-09-12T01:47:16;95303.56;;;17.33;100.00
62634;BME280;48704;50.534;6.442;2023-09-12T01:49:45;95302.50;;;17.36;100.00
62634;BME280;48704;50.534;6.442;2023-09-12T01:52:12;95293.53;;;17.38;100.00
62634;BME280;48704;50.534;6.442;2023-09-12T01:54:40;95296.63;;;17.10;100.00
62634;BME280;48704;50.534;6.442;2023-09-12T01:57:07;95297.72;;;17.07;100.00
62634;BME280;48704;50.534;6.442;2023-09-12T01:59:33;95303.22;;;16.69;100.00
62634;BME280;48704;50.534;6.442;2023-09-12T02:01:59;95307.22;;;16.44;100.00
62634;BME280;48704;50.534;6.442;2023-09-12T02:04:24;95298.06;;;16.38;100.00
62634;BME280;48704;50.534;6.442;2023-09-12T02:06:49;95300.16;;;16.62;100.00
62634;BME280;48704;50.534;6.442;2023-09-12T02:09:14;95303.31;;;16.53;100.00
62634;BME280;48704;50.534;6.442;2023-09-12T02:11:40;95294.69;;;16.45;100.00
62634;BME280;48704;50.534;6.442;2023-09-12T02:14:05;95301.53;;;16.50;100.00
62634;BME280;48704;50.534;6.442;2023-09-12T02:16:31;95298.28;;;16.40;100.00
62634;BME280;48704;50.534;6.442;2023-09-12T02:18:56;95304.88;;;16.48;100.00
62634;BME280;48704;50.534;6.442;2023-09-12T02:21:22;95300.16;;;16.67;100.00
62634;BME280;48704;50.534;6.442;2023-09-12T02:23:47;95306.47;;;16.74;100.00
62634;BME280;48704;50.534;6.442;2023-09-12T02:26:12;95290.53;;;16.82;100.00
62634;BME280;48704;50.534;6.442;2023-09-12T02:28:37;95290.53;;;16.82;100.00
62634;BME280;48704;50.534;6.442;2023-09-12T02:31:03;95296.13;;;16.87;100.00
62634;BME280;48704;50.534;6.442;2023-09-12T02:33:28;95304.38;;;16.80;100.00
62634;BME280;48704;50.534;6.442;2023-09-12T02:35:53;95293.81;;;16.86;100.00
62634;BME280;48704;50.534;6.442;2023-09-12T02:38:19;95286.84;;;16.92;100.00
62634;BME280;48704;50.534;6.442;2023-09-12T02:40:44;95290.34;;;16.74;100.00
62634;BME280;48704;50.534;6.442;2023-09-12T02:43:09;95291.06;;;16.50;100.00
62634;BME280;48704;50.534;6.442;2023-09-12T02:45:35;95295.88;;;16.55;100.00
62634;BME280;48704;50.534;6.442;2023-09-12T02:48:00;95300.59;;;16.42;100.00
62634;BME280;48704;50.534;6.442;2023-09-12T02:50:26;95302.53;;;16.22;100.00
62634;BME280;48704;50.534;6.442;2023-09-12T02:52:52;95289.44;;;16.30;100.00
62634;BME280;48704;50.534;6.442;2023-09-12T02:55:17;95294.59;;;16.56;100.00
62634;BME280;48704;50.534;6.442;2023-09-12T02:57:43;95291.75;;;16.32;100.00
62634;BME280;48704;50.534;6.442;2023-09-12T03:00:08;95291.13;;;16.09;100.00
62634;BME280;48704;50.534;6.442;2023-09-12T03:02:34;95296.25;;;16.05;100.00
62634;BME280;48704;50.534;6.442;2023-09-12T03:05:00;95299.44;;;16.26;100.00
62634;BME280;48704;50.534;6.442;2023-09-12T03:07:26;95291.16;;;16.39;100.00
62634;BME280;48704;50.534;6.442;2023-09-12T03:09:52;95289.00;;;16.51;100.00
62634;BME280;48704;50.534;6.442;2023-09-12T03:12:17;95294.59;;;16.56;100.00
62634;BME280;48704;50.534;6.442;2023-09-12T03:14:43;95299.91;;;16.65;100.00
62634;BME280;48704;50.534;6.442;2023-09-12T03:17:08;95298.63;;;16.66;100.00
62634;BME280;48704;50.534;6.442;2023-09-12T03:19:33;95304.13;;;16.78;100.00
62634;BME280;48704;50.534;6.442;2023-09-12T03:21:58;95305.97;;;17.24;100.00
62634;BME280;48704;50.534;6.442;2023-09-12T03:24:24;95303.69;;;16.98;100.00
62634;BME280;48704;50.534;6.442;2023-09-12T03:26:51;95303.22;;;16.94;100.00
62634;BME280;48704;50.534;6.442;2023-09-12T03:29:16;95294.13;;;16.82;100.00
62634;BME280;48704;50.534;6.442;2023-09-12T03:31:41;95292.66;;;17.00;100.00
62634;BME280;48704;50.534;6.442;2023-09-12T03:34:07;95294.31;;;16.90;100.00
62634;BME280;48704;50.534;6.442;2023-09-12T03:36:32;95298.56;;;16.72;100.00
62634;BME280;48704;50.534;6.442;2023-09-12T03:38:58;95285.72;;;16.77;100.00
62634;BME280;48704;50.534;6.442;2023-09-12T03:41:23;95271.25;;;17.16;100.00
62634;BME280;48704;50.534;6.442;2023-09-12T03:43:52;95234.84;;;16.99;100.00
62634;BME280;48704;50.534;6.442;2023-09-12T03:46:18;95221.00;;;17.01;100.00
62634;BME280;48704;50.534;6.442;2023-09-12T03:48:43;95226.25;;;17.10;100.00
62634;BME280;48704;50.534;6.442;2023-09-12T03:51:08;95246.06;;;17.23;100.00
62634;BME280;48704;50.534;6.442;2023-09-12T03:53:33;95261.22;;;17.20;100.00
62634;BME280;48704;50.534;6.442;2023-09-12T03:55:59;95274.38;;;16.58;100.00
62634;BME280;48704;50.534;6.442;2023-09-12T03:58:24;95278.28;;;16.49;100.00
62634;BME280;48704;50.534;6.442;2023-09-12T04:00:50;95274.38;;;16.58;100.00
62634;BME280;48704;50.534;6.442;2023-09-12T04:03:15;95264.47;;;16.51;100.00
62634;BME280;48704;50.534;6.442;2023-09-12T04:05:41;95260.84;;;16.56;100.00
62634;BME280;48704;50.534;6.442;2023-09-12T04:08:06;95264.25;;;16.74;100.00
62634;BME280;48704;50.534;6.442;2023-09-12T04:10:32;95258.81;;;16.81;100.00
62634;BME280;48704;50.534;6.442;2023-09-12T04:12:57;95251.66;;;16.80;100.00
62634;BME280;48704;50.534;6.442;2023-09-12T04:15:23;95245.41;;;16.93;100.00
62634;BME280;48704;50.534;6.442;2023-09-12T04:17:48;95254.66;;;16.88;100.00
62634;BME280;48704;50.534;6.442;2023-09-12T04:20:14;95253.56;;;16.96;100.00
62634;BME280;48704;50.534;6.442;2023-09-12T04:22:40;95246.03;;;16.80;100.00
62634;BME280;48704;50.534;6.442;2023-09-12T04:25:06;95240.00;;;16.95;100.00
62634;BME280;48704;50.534;6.442;2023-09-12T04:27:31;95246.22;;;16.88;100.00
62634;BME280;48704;50.534;6.442;2023-09-12T04:29:57;95246.03;;;16.80;100.00
62634;BME280;48704;50.534;6.442;2023-09-12T04:32:22;95255.25;;;16.81;100.00
62634;BME280;48704;50.534;6.442;2023-09-12T04:34:49;95261.50;;;16.38;100.00
62634;BME280;48704;50.534;6.442;2023-09-12T04:37:14;95260.34;;;16.52;100.00
62634;BME280;48704;50.534;6.442;2023-09-12T04:39:40;95256.47;;;16.31;100.00
62634;BME280;48704;50.534;6.442;2023-09-12T04:42:05;95279.13;;;16.09;100.00
62634;BME280;48704;50.534;6.442;2023-09-12T04:44:35;95283.31;;;15.96;100.00
62634;BME280;48704;50.534;6.442;2023-09-12T04:47:01;95288.09;;;16.01;100.00
62634;BME280;48704;50.534;6.442;2023-09-12T04:49:27;95276.28;;;16.14;100.00
62634;BME280;48704;50.534;6.442;2023-09-12T04:51:52;95274.81;;;16.02;100.00
62634;BME280;48704;50.534;6.442;2023-09-12T04:54:17;95281.28;;;15.91;100.00
62634;BME280;48704;50.534;6.442;2023-09-12T04:56:43;95280.03;;;15.87;100.00
62634;BME280;48704;50.534;6.442;2023-09-12T04:59:08;95280.69;;;15.63;100.00
62634;BME280;48704;50.534;6.442;2023-09-12T05:01:33;95286.69;;;15.84;100.00
62634;BME280;48704;50.534;6.442;2023-09-12T05:03:59;95294.66;;;15.74;100.00
62634;BME280;48704;50.534;6.442;2023-09-12T05:06:24;95292.59;;;15.80;100.00
62634;BME280;48704;50.534;6.442;2023-09-12T05:08:49;95283.69;;;15.76;100.00
62634;BME280;48704;50.534;6.442;2023-09-12T05:11:15;95288.06;;;16.07;100.00
62634;BME280;48704;50.534;6.442;2023-09-12T05:13:40;95289.09;;;15.63;100.00
62634;BME280;48704;50.534;6.442;2023-09-12T05:16:06;95271.78;;;15.59;100.00
62634;BME280;48704;50.534;6.442;2023-09-12T05:18:31;95274.09;;;15.49;100.00
62634;BME280;48704;50.534;6.442;2023-09-12T05:20:57;95273.59;;;15.45;100.00
62634;BME280;48704;50.534;6.442;2023-09-12T05:23:22;95276.44;;;15.39;100.00
62634;BME280;48704;50.534;6.442;2023-09-12T05:25:47;95281.97;;;15.62;100.00
62634;BME280;48704;50.534;6.442;2023-09-12T05:28:13;95280.38;;;15.72;100.00
62634;BME280;48704;50.534;6.442;2023-09-12T05:30:42;95279.66;;;16.01;100.00
62634;BME280;48704;50.534;6.442;2023-09-12T05:33:07;95285.88;;;15.94;100.00
62634;BME280;48704;50.534;6.442;2023-09-12T05:35:32;95284.47;;;15.71;100.00
62634;BME280;48704;50.534;6.442;2023-09-12T05:37:58;95296.31;;;15.47;100.00
62634;BME280;48704;50.534;6.442;2023-09-12T05:40:23;95301.50;;;15.26;100.00
62634;BME280;48704;50.534;6.442;2023-09-12T05:42:48;95293.53;;;15.36;100.00
62634;BME280;48704;50.534;6.442;2023-09-12T05:45:14;95301.81;;;15.75;100.00
62634;BME280;48704;50.534;6.442;2023-09-12T05:47:39;95304.16;;;16.07;100.00
62634;BME280;48704;50.534;6.442;2023-09-12T05:50:05;95309.66;;;16.29;100.00
62634;BME280;48704;50.534;6.442;2023-09-12T05:52:32;95308.50;;;16.08;100.00
62634;BME280;48704;50.534;6.442;2023-09-12T05:54:57;95304.72;;;15.99;100.00
62634;BME280;48704;50.534;6.442;2023-09-12T05:57:23;95305.56;;;16.30;100.00
62634;BME280;48704;50.534;6.442;2023-09-12T05:59:49;95298.13;;;16.62;100.00
62634;BME280;48704;50.534;6.442;2023-09-12T06:02:14;95308.22;;;16.77;100.00
62634;BME280;48704;50.534;6.442;2023-09-12T06:04:39;95300.59;;;16.71;100.00
62634;BME280;48704;50.534;6.442;2023-09-12T06:07:05;95299.16;;;16.89;100.00
62634;BME280;48704;50.534;6.442;2023-09-12T06:09:30;95293.34;;;16.82;100.00
62634;BME280;48704;50.534;6.442;2023-09-12T06:11:56;95305.94;;;16.45;100.00
62634;BME280;48704;50.534;6.442;2023-09-12T06:14:21;95300.63;;;16.96;100.00
62634;BME280;48704;50.534;6.442;2023-09-12T06:16:46;95296.47;;;17.02;100.00
62634;BME280;48704;50.534;6.442;2023-09-12T06:19:12;95307.31;;;17.17;100.00
62634;BME280;48704;50.534;6.442;2023-09-12T06:21:37;95311.59;;;16.99;100.00
62634;BME280;48704;50.534;6.442;2023-09-12T06:26:35;95310.94;;;17.36;100.00
62634;BME280;48704;50.534;6.442;2023-09-12T06:29:00;95309.06;;;17.20;100.00
62634;BME280;48704;50.534;6.442;2023-09-12T06:31:25;95308.59;;;17.41;100.00
62634;BME280;48704;50.534;6.442;2023-09-12T06:33:50;95306.00;;;17.67;100.00
62634;BME280;48704;50.534;6.442;2023-09-12T06:36:16;95300.72;;;17.95;100.00
62634;BME280;48704;50.534;6.442;2023-09-12T06:38:41;95297.03;;;18.38;100.00
62634;BME280;48704;50.534;6.442;2023-09-12T06:41:06;95287.34;;;18.33;100.00
62634;BME280;48704;50.534;6.442;2023-09-12T06:43:32;95302.03;;;18.45;100.00
62634;BME280;48704;50.534;6.442;2023-09-12T06:45:57;95292.69;;;18.69;100.00
62634;BME280;48704;50.534;6.442;2023-09-12T06:48:22;95292.63;;;18.88;100.00
62634;BME280;48704;50.534;6.442;2023-09-12T06:50:48;95284.78;;;18.94;100.00
62634;BME280;48704;50.534;6.442;2023-09-12T06:53:13;95287.31;;;18.84;100.00
62634;BME280;48704;50.534;6.442;2023-09-12T06:55:38;95280.28;;;19.17;100.00
62634;BME280;48704;50.534;6.442;2023-09-12T06:58:04;95281.91;;;19.13;100.00
62634;BME280;48704;50.534;6.442;2023-09-12T07:00:29;95285.34;;;19.06;100.00
62634;BME280;48704;50.534;6.442;2023-09-12T07:02:54;95289.03;;;19.00;100.00
62634;BME280;48704;50.534;6.442;2023-09-12T07:05:20;95291.31;;;19.02;100.00
62634;BME280;48704;50.534;6.442;2023-09-12T07:07:45;95289.59;;;19.12;100.00
62634;BME280;48704;50.534;6.442;2023-09-12T07:10:10;95284.38;;;19.03;100.00
62634;BME280;48704;50.534;6.442;2023-09-12T07:12:37;95278.63;;;19.09;100.00
62634;BME280;48704;50.534;6.442;2023-09-12T07:15:02;95283.75;;;19.23;100.00
62634;BME280;48704;50.534;6.442;2023-09-12T07:17:28;95283.31;;;19.19;100.00
62634;BME280;48704;50.534;6.442;2023-09-12T07:19:57;95283.09;;;19.17;100.00
62634;BME280;48704;50.534;6.442;2023-09-12T07:22:23;95294.25;;;18.96;100.00
62634;BME280;48704;50.534;6.442;2023-09-12T07:24:48;95290.88;;;18.98;100.00
62634;BME280;48704;50.534;6.442;2023-09-12T07:27:13;95289.94;;;19.09;100.00
62634;BME280;48704;50.534;6.442;2023-09-12T07:29:39;95294.50;;;19.12;100.00
62634;BME280;48704;50.534;6.442;2023-09-12T07:32:04;95297.41;;;18.93;100.00
62634;BME280;48704;50.534;6.442;2023-09-12T07:34:29;95289.59;;;18.99;100.00
62634;BME280;48704;50.534;6.442;2023-09-12T07:36:55;95290.25;;;19.18;100.00
62634;BME280;48704;50.534;6.442;2023-09-12T07:39:20;95293.09;;;19.45;100.00
62634;BME280;48704;50.534;6.442;2023-09-12T07:41:46;95288.75;;;19.57;100.00
62634;BME280;48704;50.534;6.442;2023-09-12T07:44:11;95289.19;;;19.61;100.00
62634;BME280;48704;50.534;6.442;2023-09-12T07:46:37;95286.75;;;19.78;100.00
62634;BME280;48704;50.534;6.442;2023-09-12T07:49:03;95286.41;;;19.95;100.00
62634;BME280;48704;50.534;6.442;2023-09-12T07:51:28;95283.88;;;20.05;100.00
62634;BME280;48704;50.534;6.442;2023-09-12T07:53:53;95283.91;;;19.91;100.00
62634;BME280;48704;50.534;6.442;2023-09-12T07:56:18;95285.78;;;20.23;100.00
62634;BME280;48704;50.534;6.442;2023-09-12T07:58:44;95286.19;;;20.40;100.00
62634;BME280;48704;50.534;6.442;2023-09-12T08:01:09;95288.25;;;20.26;100.00
62634;BME280;48704;50.534;6.442;2023-09-12T08:03:36;95291.50;;;20.64;100.00
62634;BME280;48704;50.534;6.442;2023-09-12T08:06:02;95289.69;;;20.75;100.00
62634;BME280;48704;50.534;6.442;2023-09-12T08:08:28;95290.63;;;20.98;100.00
62634;BME280;48704;50.534;6.442;2023-09-12T08:10:53;95293.97;;;20.89;100.00
62634;BME280;48704;50.534;6.442;2023-09-12T08:13:18;95292.03;;;20.84;100.00
62634;BME280;48704;50.534;6.442;2023-09-12T08:15:43;95296.44;;;21.13;100.00
62634;BME280;48704;50.534;6.442;2023-09-12T08:18:10;95295.19;;;21.01;100.00
62634;BME280;48704;50.534;6.442;2023-09-12T08:20:35;95299.69;;;21.46;100.00
62634;BME280;48704;50.534;6.442;2023-09-12T08:23:01;95304.25;;;21.49;100.00
62634;BME280;48704;50.534;6.442;2023-09-12T08:25:26;95306.41;;;21.35;100.00
62634;BME280;48704;50.534;6.442;2023-09-12T08:27:52;95313.69;;;21.23;100.00
62634;BME280;48704;50.534;6.442;2023-09-12T08:30:17;95314.13;;;21.63;100.00
62634;BME280;48704;50.534;6.442;2023-09-12T08:32:43;95317.50;;;21.90;100.00
62634;BME280;48704;50.534;6.442;2023-09-12T08:35:14;95318.94;;;22.12;100.00
62634;BME280;48704;50.534;6.442;2023-09-12T08:37:40;95326.78;;;21.98;100.00
62634;BME280;48704;50.534;6.442;2023-09-12T08:40:07;95330.94;;;21.89;100.00
62634;BME280;48704;50.534;6.442;2023-09-12T08:42:38;95333.94;;;21.27;100.00
62634;BME280;48704;50.534;6.442;2023-09-12T08:45:07;95334.50;;;21.54;100.00
62634;BME280;48704;50.534;6.442;2023-09-12T08:47:35;95335.63;;;21.51;100.00
62634;BME280;48704;50.534;6.442;2023-09-12T08:50:02;95344.47;;;21.76;100.00
62634;BME280;48704;50.534;6.442;2023-09-12T08:52:29;95341.53;;;21.32;100.00
62634;BME280;48704;50.534;6.442;2023-09-12T08:54:54;95347.06;;;21.38;100.00
62634;BME280;48704;50.534;6.442;2023-09-12T08:57:20;95343.19;;;21.27;100.00
62634;BME280;48704;50.534;6.442;2023-09-12T08:59:47;95341.88;;;21.85;100.00
62634;BME280;48704;50.534;6.442;2023-09-12T09:02:14;95333.88;;;21.76;100.00
62634;BME280;48704;50.534;6.442;2023-09-12T09:04:40;95331.28;;;21.50;100.00
62634;BME280;48704;50.534;6.442;2023-09-12T09:07:06;95329.84;;;21.35;100.00
62634;BME280;48704;50.534;6.442;2023-09-12T09:09:32;95333.59;;;21.59;100.00
62634;BME280;48704;50.534;6.442;2023-09-12T09:11:58;95342.28;;;21.61;100.00
62634;BME280;48704;50.534;6.442;2023-09-12T09:14:23;95333.94;;;21.91;100.00
62634;BME280;48704;50.534;6.442;2023-09-12T09:16:49;95336.84;;;22.50;100.00
62634;BME280;48704;50.534;6.442;2023-09-12T09:19:15;95344.81;;;22.67;100.00
62634;BME280;48704;50.534;6.442;2023-09-12T09:21:41;95344.06;;;22.51;100.00
62634;BME280;48704;50.534;6.442;2023-09-12T09:24:08;95339.03;;;23.03;100.00
62634;BME280;48704;50.534;6.442;2023-09-12T09:26:45;95337.34;;;23.00;100.00
62634;BME280;48704;50.534;6.442;2023-09-12T09:29:13;95336.53;;;22.77;100.00
62634;BME280;48704;50.534;6.442;2023-09-12T09:31:43;95342.94;;;22.69;100.00
62634;BME280;48704;50.534;6.442;2023-09-12T09:34:14;95339.59;;;23.09;100.00
62634;BME280;48704;50.534;6.442;2023-09-12T09:36:51;95347.56;;;23.03;100.00
62634;BME280;48704;50.534;6.442;2023-09-12T09:39:18;95348.69;;;23.76;100.00
62634;BME280;48704;50.534;6.442;2023-09-12T09:41:57;95343.78;;;24.24;97.32
62634;BME280;48704;50.534;6.442;2023-09-12T09:44:24;95341.75;;;24.57;95.65
62634;BME280;48704;50.534;6.442;2023-09-12T09:46:54;95344.13;;;22.82;100.00
62634;BME280;48704;50.534;6.442;2023-09-12T09:49:20;95337.63;;;22.66;100.00
62634;BME280;48704;50.534;6.442;2023-09-12T09:51:46;95335.81;;;23.37;100.00
62634;BME280;48704;50.534;6.442;2023-09-12T09:54:12;95339.63;;;23.24;100.00
62634;BME280;48704;50.534;6.442;2023-09-12T09:56:53;95334.44;;;24.39;98.28
62634;BME280;48704;50.534;6.442;2023-09-12T09:59:21;95346.03;;;23.48;100.00
62634;BME280;48704;50.534;6.442;2023-09-12T10:01:49;95347.03;;;24.21;99.40
62634;BME280;48704;50.534;6.442;2023-09-12T10:04:14;95335.25;;;24.97;93.25
62634;BME280;48704;50.534;6.442;2023-09-12T10:06:43;95339.97;;;23.44;100.00
62634;BME280;48704;50.534;6.442;2023-09-12T10:09:11;95330.25;;;24.48;97.42
62634;BME280;48704;50.534;6.442;2023-09-12T10:11:38;95331.28;;;24.60;95.60
62634;BME280;48704;50.534;6.442;2023-09-12T10:14:05;95341.50;;;24.23;97.24
62634;BME280;48704;50.534;6.442;2023-09-12T10:19:20;95340.44;;;24.11;98.15
62634;BME280;48704;50.534;6.442;2023-09-12T10:22:04;95338.31;;;26.01;86.99
62634;BME280;48704;50.534;6.442;2023-09-12T10:24:32;95340.00;;;26.38;82.50
62634;BME280;48704;50.534;6.442;2023-09-12T10:26:58;95332.31;;;27.02;78.49
62634;BME280;48704;50.534;6.442;2023-09-12T10:29:25;95335.72;;;27.74;75.06
62634;BME280;48704;50.534;6.442;2023-09-12T10:31:50;95335.72;;;27.74;72.18
62634;BME280;48704;50.534;6.442;2023-09-12T10:34:16;95334.53;;;28.06;68.48
62634;BME280;48704;50.534;6.442;2023-09-12T10:36:42;95333.22;;;28.26;69.25
62634;BME280;48704;50.534;6.442;2023-09-12T10:39:09;95340.69;;;27.73;72.33
62634;BME280;48704;50.534;6.442;2023-09-12T10:41:37;95336.94;;;26.98;73.86
62634;BME280;48704;50.534;6.442;2023-09-12T10:44:09;95339.72;;;26.88;73.87
62634;BME280;48704;50.534;6.442;2023-09-12T10:46:37;95339.72;;;27.15;70.10
62634;BME280;48704;50.534;6.442;2023-09-12T10:49:09;95335.13;;;27.75;68.54
62634;BME280;48704;50.534;6.442;2023-09-12T10:51:44;95334.09;;;28.19;67.79
62634;BME280;48704;50.534;6.442;2023-09-12T10:54:14;95321.38;;;27.64;67.13
62634;BME280;48704;50.534;6.442;2023-09-12T10:56:40;95320.97;;;28.06;68.61
62634;BME280;48704;50.534;6.442;2023-09-12T11:01:44;95320.69;;;25.60;78.85
62634;BME280;48704;50.534;6.442;2023-09-12T11:06:45;95327.59;;;27.89;66.76
62634;BME280;48704;50.534;6.442;2023-09-12T11:11:43;95322.50;;;29.15;61.79
62634;BME280;48704;50.534;6.442;2023-09-12T11:14:09;95331.09;;;27.51;67.05
62634;BME280;48704;50.534;6.442;2023-09-12T11:16:35;95336.34;;;28.69;63.71
62634;BME280;48704;50.534;6.442;2023-09-12T11:19:17;95328.38;;;28.38;63.04
62634;BME280;48704;50.534;6.442;2023-09-12T11:21:49;95327.19;;;29.11;62.38
62634;BME280;48704;50.534;6.442;2023-09-12T11:24:15;95329.56;;;27.77;67.75
62634;BME280;48704;50.534;6.442;2023-09-12T11:27:00;95325.91;;;26.94;71.32
62634;BME280;48704;50.534;6.442;2023-09-12T11:29:38;95328.44;;;26.19;74.78
62634;BME280;48704;50.534;6.442;2023-09-12T11:32:04;95333.22;;;27.05;71.00
62634;BME280;48704;50.534;6.442;2023-09-12T11:34:40;95327.16;;;27.83;65.64
62634;BME280;48704;50.534;6.442;2023-09-12T11:37:06;95318.09;;;27.77;66.31
62634;BME280;48704;50.534;6.442;2023-09-12T11:39:33;95321.56;;;27.29;69.08
62634;BME280;48704;50.534;6.442;2023-09-12T11:42:00;95312.66;;;25.24;77.36
62634;BME280;48704;50.534;6.442;2023-09-12T11:44:27;95321.97;;;25.84;78.15
62634;BME280;48704;50.534;6.442;2023-09-12T11:46:53;95321.84;;;27.24;72.88
62634;BME280;48704;50.534;6.442;2023-09-12T11:49:19;95333.69;;;27.11;72.58
62634;BME280;48704;50.534;6.442;2023-09-12T11:51:54;95326.47;;;27.10;72.29
62634;BME280;48704;50.534;6.442;2023-09-12T11:54:26;95328.69;;;25.79;76.78
62634;BME280;48704;50.534;6.442;2023-09-12T11:56:52;95332.63;;;25.83;78.64
62634;BME280;48704;50.534;6.442;2023-09-12T11:59:27;95338.06;;;26.41;78.50
62634;BME280;48704;50.534;6.442;2023-09-12T12:01:54;95339.25;;;26.38;73.31
62634;BME280;48704;50.534;6.442;2023-09-12T12:04:24;95329.94;;;25.85;77.10
62634;BME280;48704;50.534;6.442;2023-09-12T12:06:52;95333.00;;;25.20;79.36
62634;BME280;48704;50.534;6.442;2023-09-12T12:09:18;95326.28;;;24.76;82.89
62634;BME280;48704;50.534;6.442;2023-09-12T12:11:45;95328.56;;;25.02;84.07
62634;BME280;48704;50.534;6.442;2023-09-12T12:14:16;95330.63;;;25.09;83.76
62634;BME280;48704;50.534;6.442;2023-09-12T12:16:42;95326.22;;;24.51;84.97
62634;BME280;48704;50.534;6.442;2023-09-12T12:19:09;95324.63;;;24.90;84.16
62634;BME280;48704;50.534;6.442;2023-09-12T12:21:36;95327.25;;;24.71;85.95
62634;BME280;48704;50.534;6.442;2023-09-12T12:24:02;95326.16;;;24.58;86.75
62634;BME280;48704;50.534;6.442;2023-09-12T12:26:29;95324.56;;;24.40;88.87
62634;BME280;48704;50.534;6.442;2023-09-12T12:28:54;95320.25;;;25.21;87.23
62634;BME280;48704;50.534;6.442;2023-09-12T12:31:20;95321.13;;;24.49;87.39
62634;BME280;48704;50.534;6.442;2023-09-12T12:33:52;95322.56;;;24.58;86.87
62634;BME280;48704;50.534;6.442;2023-09-12T12:36:18;95319.09;;;24.92;86.03
62634;BME280;48704;50.534;6.442;2023-09-12T12:38:45;95316.81;;;24.65;87.71
62634;BME280;48704;50.534;6.442;2023-09-12T12:41:11;95311.56;;;24.54;87.19
62634;BME280;48704;50.534;6.442;2023-09-12T12:43:39;95312.81;;;24.36;88.22
62634;BME280;48704;50.534;6.442;2023-09-12T12:46:10;95314.84;;;23.95;92.93
62634;BME280;48704;50.534;6.442;2023-09-12T12:48:36;95318.91;;;24.32;91.91
62634;BME280;48704;50.534;6.442;2023-09-12T12:51:22;95308.53;;;23.57;94.61
62634;BME280;48704;50.534;6.442;2023-09-12T12:53:55;95302.09;;;23.18;98.12
62634;BME280;48704;50.534;6.442;2023-09-12T12:56:27;95309.25;;;23.42;98.42
62634;BME280;48704;50.534;6.442;2023-09-12T12:58:58;95297.91;;;23.34;99.37
62634;BME280;48704;50.534;6.442;2023-09-12T13:01:24;95294.63;;;23.76;97.07
62634;BME280;48704;50.534;6.442;2023-09-12T13:03:50;95306.22;;;23.48;98.15
62634;BME280;48704;50.534;6.442;2023-09-12T13:06:16;95302.47;;;23.38;99.27